sensor_id;sensor_type;location;lat;lon;timestamp;P1;durP1;ratioP1;P2;durP2;ratioP2
48665;SDS011;34452;50.796;4.994;2023-06-19T00:00:08;5.25;;;3.47;;
48665;SDS011;34452;50.796;4.994;2023-06-19T00:02:38;4.57;;;3.22;;
48665;SDS011;34452;50.796;4.994;2023-06-19T00:05:05;6.03;;;3.35;;
48665;SDS011;34452;50.796;4.994;2023-06-19T00:07:32;4.90;;;3.38;;
48665;SDS011;34452;50.796;4.994;2023-06-19T00:12:24;4.45;;;3.30;;
48665;SDS011;34452;50.796;4.994;2023-06-19T00:14:50;8.30;;;3.20;;
48665;SDS011;34452;50.796;4.994;2023-06-19T00:17:15;5.28;;;3.65;;
48665;SDS011;34452;50.796;4.994;2023-06-19T00:19:43;8.52;;;3.40;;
48665;SDS011;34452;50.796;4.994;2023-06-19T00:22:08;6.38;;;3.75;;
48665;SDS011;34452;50.796;4.994;2023-06-19T00:24:34;4.22;;;2.63;;
48665;SDS011;34452;50.796;4.994;2023-06-19T00:27:00;4.15;;;3.08;;
48665;SDS011;34452;50.796;4.994;2023-06-19T00:29:27;6.00;;;3.65;;
48665;SDS011;34452;50.796;4.994;2023-06-19T00:31:53;4.88;;;3.20;;
48665;SDS011;34452;50.796;4.994;2023-06-19T00:34:19;6.72;;;3.45;;
48665;SDS011;34452;50.796;4.994;2023-06-19T00:36:45;5.05;;;3.25;;
48665;SDS011;34452;50.796;4.994;2023-06-19T00:39:11;6.25;;;3.45;;
48665;SDS011;34452;50.796;4.994;2023-06-19T00:41:37;8.40;;;2.90;;
48665;SDS011;34452;50.796;4.994;2023-06-19T00:44:04;4.70;;;3.28;;
48665;SDS011;34452;50.796;4.994;2023-06-19T00:46:30;7.60;;;3.25;;
48665;SDS011;34452;50.796;4.994;2023-06-19T00:48:56;4.72;;;3.20;;
48665;SDS011;34452;50.796;4.994;2023-06-19T00:51:22;7.13;;;3.40;;
48665;SDS011;34452;50.796;4.994;2023-06-19T00:53:48;5.70;;;2.65;;
48665;SDS011;34452;50.796;4.994;2023-06-19T00:56:14;8.85;;;3.13;;
48665;SDS011;34452;50.796;4.994;2023-06-19T00:58:43;4.05;;;2.88;;
48665;SDS011;34452;50.796;4.994;2023-06-19T01:03:35;9.10;;;3.10;;
48665;SDS011;34452;50.796;4.994;2023-06-19T01:11:21;6.30;;;2.88;;
48665;SDS011;34452;50.796;4.994;2023-06-19T01:13:53;4.47;;;3.03;;
48665;SDS011;34452;50.796;4.994;2023-06-19T01:16:24;8.73;;;2.90;;
48665;SDS011;34452;50.796;4.994;2023-06-19T01:18:50;5.18;;;2.53;;
48665;SDS011;34452;50.796;4.994;2023-06-19T01:21:17;6.03;;;3.05;;
48665;SDS011;34452;50.796;4.994;2023-06-19T01:23:44;6.90;;;3.17;;
48665;SDS011;34452;50.796;4.994;2023-06-19T01:26:10;4.68;;;2.75;;
48665;SDS011;34452;50.796;4.994;2023-06-19T01:28:37;4.90;;;3.00;;
48665;SDS011;34452;50.796;4.994;2023-06-19T01:31:06;5.35;;;3.00;;
48665;SDS011;34452;50.796;4.994;2023-06-19T01:33:37;7.07;;;2.63;;
48665;SDS011;34452;50.796;4.994;2023-06-19T01:36:05;10.48;;;3.40;;
48665;SDS011;34452;50.796;4.994;2023-06-19T01:38:32;5.20;;;3.13;;
48665;SDS011;34452;50.796;4.994;2023-06-19T01:40:59;8.23;;;3.50;;
48665;SDS011;34452;50.796;4.994;2023-06-19T01:43:28;4.72;;;3.08;;
48665;SDS011;34452;50.796;4.994;2023-06-19T01:45:56;6.30;;;3.17;;
48665;SDS011;34452;50.796;4.994;2023-06-19T01:48:23;3.95;;;2.63;;
48665;SDS011;34452;50.796;4.994;2023-06-19T01:50:48;8.00;;;2.97;;
48665;SDS011;34452;50.796;4.994;2023-06-19T01:53:16;7.25;;;3.42;;
48665;SDS011;34452;50.796;4.994;2023-06-19T05:41:57;10.02;;;5.63;;
48665;SDS011;34452;50.796;4.994;2023-06-19T05:44:23;9.45;;;6.10;;
48665;SDS011;34452;50.796;4.994;2023-06-19T05:46:49;8.02;;;5.97;;
48665;SDS011;34452;50.796;4.994;2023-06-19T05:49:15;8.70;;;5.55;;
48665;SDS011;34452;50.796;4.994;2023-06-19T05:51:40;8.75;;;6.25;;
48665;SDS011;34452;50.796;4.994;2023-06-19T05:54:06;9.35;;;5.93;;
48665;SDS011;34452;50.796;4.994;2023-06-19T05:56:32;9.25;;;6.07;;
48665;SDS011;34452;50.796;4.994;2023-06-19T05:58:58;9.85;;;5.60;;
48665;SDS011;34452;50.796;4.994;2023-06-19T06:01:26;10.50;;;5.88;;
48665;SDS011;34452;50.796;4.994;2023-06-19T06:03:54;8.02;;;5.60;;
48665;SDS011;34452;50.796;4.994;2023-06-19T06:06:20;9.73;;;5.20;;
48665;SDS011;34452;50.796;4.994;2023-06-19T06:08:47;9.60;;;6.15;;
48665;SDS011;34452;50.796;4.994;2023-06-19T06:11:13;11.77;;;6.10;;
48665;SDS011;34452;50.796;4.994;2023-06-19T06:13:39;7.80;;;5.80;;
48665;SDS011;34452;50.796;4.994;2023-06-19T06:16:05;8.07;;;5.82;;
48665;SDS011;34452;50.796;4.994;2023-06-19T06:18:30;9.45;;;6.18;;
48665;SDS011;34452;50.796;4.994;2023-06-19T06:20:56;13.45;;;6.57;;
48665;SDS011;34452;50.796;4.994;2023-06-19T06:23:24;9.30;;;6.10;;
48665;SDS011;34452;50.796;4.994;2023-06-19T06:25:50;12.75;;;5.95;;
48665;SDS011;34452;50.796;4.994;2023-06-19T06:28:16;10.07;;;5.45;;
48665;SDS011;34452;50.796;4.994;2023-06-19T06:30:42;9.95;;;5.80;;
48665;SDS011;34452;50.796;4.994;2023-06-19T06:33:08;8.07;;;6.18;;
48665;SDS011;34452;50.796;4.994;2023-06-19T06:35:34;11.77;;;6.18;;
48665;SDS011;34452;50.796;4.994;2023-06-19T06:38:01;7.55;;;5.40;;
48665;SDS011;34452;50.796;4.994;2023-06-19T06:40:27;8.10;;;6.15;;
48665;SDS011;34452;50.796;4.994;2023-06-19T06:42:53;10.05;;;6.03;;
48665;SDS011;34452;50.796;4.994;2023-06-19T06:45:19;7.72;;;5.40;;
48665;SDS011;34452;50.796;4.994;2023-06-19T06:47:44;7.13;;;5.07;;
48665;SDS011;34452;50.796;4.994;2023-06-19T06:50:10;6.35;;;4.72;;
48665;SDS011;34452;50.796;4.994;2023-06-19T06:52:36;6.28;;;5.05;;
48665;SDS011;34452;50.796;4.994;2023-06-19T06:57:28;10.15;;;5.60;;
48665;SDS011;34452;50.796;4.994;2023-06-19T06:59:54;9.55;;;5.13;;
48665;SDS011;34452;50.796;4.994;2023-06-19T07:02:19;9.80;;;5.18;;
48665;SDS011;34452;50.796;4.994;2023-06-19T07:04:45;7.68;;;5.30;;
48665;SDS011;34452;50.796;4.994;2023-06-19T07:07:11;9.48;;;5.15;;
48665;SDS011;34452;50.796;4.994;2023-06-19T07:09:37;6.97;;;5.07;;
48665;SDS011;34452;50.796;4.994;2023-06-19T07:12:02;11.25;;;4.65;;
48665;SDS011;34452;50.796;4.994;2023-06-19T07:14:30;14.43;;;5.00;;
48665;SDS011;34452;50.796;4.994;2023-06-19T07:16:56;6.72;;;5.18;;
48665;SDS011;34452;50.796;4.994;2023-06-19T07:19:21;7.55;;;4.53;;
48665;SDS011;34452;50.796;4.994;2023-06-19T07:21:49;6.20;;;4.65;;
48665;SDS011;34452;50.796;4.994;2023-06-19T07:24:15;6.18;;;4.80;;
48665;SDS011;34452;50.796;4.994;2023-06-19T07:26:41;6.70;;;4.47;;
48665;SDS011;34452;50.796;4.994;2023-06-19T07:29:07;7.07;;;4.93;;
48665;SDS011;34452;50.796;4.994;2023-06-19T07:31:33;7.53;;;4.72;;
48665;SDS011;34452;50.796;4.994;2023-06-19T07:33:58;7.53;;;4.80;;
48665;SDS011;34452;50.796;4.994;2023-06-19T07:36:24;7.82;;;4.97;;
48665;SDS011;34452;50.796;4.994;2023-06-19T07:38:51;7.50;;;4.80;;
48665;SDS011;34452;50.796;4.994;2023-06-19T07:41:17;8.98;;;5.53;;
48665;SDS011;34452;50.796;4.994;2023-06-19T07:43:43;7.53;;;5.05;;
48665;SDS011;34452;50.796;4.994;2023-06-19T07:46:09;6.47;;;4.88;;
48665;SDS011;34452;50.796;4.994;2023-06-19T07:48:35;7.97;;;5.95;;
48665;SDS011;34452;50.796;4.994;2023-06-19T07:51:01;11.05;;;5.82;;
48665;SDS011;34452;50.796;4.994;2023-06-19T07:53:26;6.97;;;5.55;;
48665;SDS011;34452;50.796;4.994;2023-06-19T07:55:52;9.15;;;5.53;;
48665;SDS011;34452;50.796;4.994;2023-06-19T07:58:18;11.18;;;5.85;;
48665;SDS011;34452;50.796;4.994;2023-06-19T08:00:43;8.25;;;6.15;;
48665;SDS011;34452;50.796;4.994;2023-06-19T08:03:09;9.02;;;5.78;;
48665;SDS011;34452;50.796;4.994;2023-06-19T08:05:35;6.57;;;5.05;;
48665;SDS011;34452;50.796;4.994;2023-06-19T08:08:01;11.23;;;5.45;;
48665;SDS011;34452;50.796;4.994;2023-06-19T08:10:27;8.02;;;5.30;;
48665;SDS011;34452;50.796;4.994;2023-06-19T08:12:53;7.25;;;5.25;;
48665;SDS011;34452;50.796;4.994;2023-06-19T08:15:18;9.00;;;5.18;;
48665;SDS011;34452;50.796;4.994;2023-06-19T08:17:44;10.57;;;5.13;;
48665;SDS011;34452;50.796;4.994;2023-06-19T08:20:10;8.70;;;5.18;;
48665;SDS011;34452;50.796;4.994;2023-06-19T08:22:36;10.70;;;5.30;;
48665;SDS011;34452;50.796;4.994;2023-06-19T08:25:02;10.60;;;5.22;;
48665;SDS011;34452;50.796;4.994;2023-06-19T08:27:30;8.55;;;5.15;;
48665;SDS011;34452;50.796;4.994;2023-06-19T08:29:56;8.60;;;5.95;;
48665;SDS011;34452;50.796;4.994;2023-06-19T08:32:22;11.80;;;6.85;;
48665;SDS011;34452;50.796;4.994;2023-06-19T08:34:48;13.02;;;5.57;;
48665;SDS011;34452;50.796;4.994;2023-06-19T08:37:13;7.68;;;5.25;;
48665;SDS011;34452;50.796;4.994;2023-06-19T08:39:39;7.93;;;5.03;;
48665;SDS011;34452;50.796;4.994;2023-06-19T08:42:06;8.40;;;5.32;;
48665;SDS011;34452;50.796;4.994;2023-06-19T08:44:33;13.95;;;5.03;;
48665;SDS011;34452;50.796;4.994;2023-06-19T08:47:01;9.77;;;4.35;;
48665;SDS011;34452;50.796;4.994;2023-06-19T08:49:29;8.02;;;4.88;;
48665;SDS011;34452;50.796;4.994;2023-06-19T08:51:56;6.95;;;4.60;;
48665;SDS011;34452;50.796;4.994;2023-06-19T08:54:22;9.02;;;4.18;;
48665;SDS011;34452;50.796;4.994;2023-06-19T08:56:48;6.78;;;4.70;;
48665;SDS011;34452;50.796;4.994;2023-06-19T08:59:14;6.25;;;5.05;;
48665;SDS011;34452;50.796;4.994;2023-06-19T09:04:25;8.77;;;4.30;;
48665;SDS011;34452;50.796;4.994;2023-06-19T09:07:02;7.18;;;4.38;;
48665;SDS011;34452;50.796;4.994;2023-06-19T09:09:47;7.80;;;4.65;;
48665;SDS011;34452;50.796;4.994;2023-06-19T09:12:13;15.38;;;5.18;;
48665;SDS011;34452;50.796;4.994;2023-06-19T09:17:07;11.02;;;5.20;;
48665;SDS011;34452;50.796;4.994;2023-06-19T09:19:36;6.78;;;4.88;;
48665;SDS011;34452;50.796;4.994;2023-06-19T09:22:15;8.68;;;5.10;;
48665;SDS011;34452;50.796;4.994;2023-06-19T09:25:00;7.38;;;4.78;;
48665;SDS011;34452;50.796;4.994;2023-06-19T09:27:31;5.13;;;4.30;;
48665;SDS011;34452;50.796;4.994;2023-06-19T09:29:57;7.85;;;4.80;;
48665;SDS011;34452;50.796;4.994;2023-06-19T09:32:24;9.55;;;4.85;;
48665;SDS011;34452;50.796;4.994;2023-06-19T09:34:54;10.80;;;4.22;;
48665;SDS011;34452;50.796;4.994;2023-06-19T09:37:24;9.57;;;4.32;;
48665;SDS011;34452;50.796;4.994;2023-06-19T09:39:52;8.45;;;4.45;;
48665;SDS011;34452;50.796;4.994;2023-06-19T09:42:20;7.13;;;4.40;;
48665;SDS011;34452;50.796;4.994;2023-06-19T09:45:09;7.60;;;4.32;;
48665;SDS011;34452;50.796;4.994;2023-06-19T09:47:38;6.85;;;4.47;;
48665;SDS011;34452;50.796;4.994;2023-06-19T09:50:05;7.72;;;4.30;;
48665;SDS011;34452;50.796;4.994;2023-06-19T09:52:32;9.43;;;4.55;;
48665;SDS011;34452;50.796;4.994;2023-06-19T09:54:59;7.60;;;4.72;;
48665;SDS011;34452;50.796;4.994;2023-06-19T09:57:28;6.60;;;4.65;;
48665;SDS011;34452;50.796;4.994;2023-06-19T09:59:55;15.82;;;4.90;;
48665;SDS011;34452;50.796;4.994;2023-06-19T10:02:22;8.55;;;5.10;;
48665;SDS011;34452;50.796;4.994;2023-06-19T10:04:51;6.22;;;4.20;;
48665;SDS011;34452;50.796;4.994;2023-06-19T10:07:20;11.88;;;4.75;;
48665;SDS011;34452;50.796;4.994;2023-06-19T10:17:43;8.35;;;4.60;;
48665;SDS011;34452;50.796;4.994;2023-06-19T10:23:03;11.07;;;5.22;;
48665;SDS011;34452;50.796;4.994;2023-06-19T10:25:32;10.20;;;5.50;;
48665;SDS011;34452;50.796;4.994;2023-06-19T10:28:00;9.10;;;4.72;;
48665;SDS011;34452;50.796;4.994;2023-06-19T10:30:26;9.90;;;5.20;;
48665;SDS011;34452;50.796;4.994;2023-06-19T10:32:53;6.63;;;5.00;;
48665;SDS011;34452;50.796;4.994;2023-06-19T10:35:18;8.98;;;4.43;;
48665;SDS011;34452;50.796;4.994;2023-06-19T10:37:46;7.60;;;4.40;;
48665;SDS011;34452;50.796;4.994;2023-06-19T10:40:13;8.23;;;5.15;;
48665;SDS011;34452;50.796;4.994;2023-06-19T10:42:39;6.95;;;5.30;;
48665;SDS011;34452;50.796;4.994;2023-06-19T10:45:06;8.48;;;5.25;;
48665;SDS011;34452;50.796;4.994;2023-06-19T10:47:35;6.70;;;5.00;;
48665;SDS011;34452;50.796;4.994;2023-06-19T10:50:02;10.77;;;5.15;;
48665;SDS011;34452;50.796;4.994;2023-06-19T10:52:29;30.38;;;5.95;;
48665;SDS011;34452;50.796;4.994;2023-06-19T10:54:55;8.13;;;4.88;;
48665;SDS011;34452;50.796;4.994;2023-06-19T11:00:09;12.13;;;5.35;;
48665;SDS011;34452;50.796;4.994;2023-06-19T11:02:39;45.20;;;6.00;;
48665;SDS011;34452;50.796;4.994;2023-06-19T11:05:08;8.98;;;4.70;;
48665;SDS011;34452;50.796;4.994;2023-06-19T11:07:35;8.57;;;5.20;;
48665;SDS011;34452;50.796;4.994;2023-06-19T11:12:28;7.93;;;4.78;;
48665;SDS011;34452;50.796;4.994;2023-06-19T11:14:54;7.50;;;5.38;;
48665;SDS011;34452;50.796;4.994;2023-06-19T11:17:20;7.32;;;5.10;;
48665;SDS011;34452;50.796;4.994;2023-06-19T11:19:47;7.45;;;4.55;;
48665;SDS011;34452;50.796;4.994;2023-06-19T11:24:48;11.30;;;4.57;;
48665;SDS011;34452;50.796;4.994;2023-06-19T11:27:36;14.55;;;4.63;;
48665;SDS011;34452;50.796;4.994;2023-06-19T11:30:04;9.50;;;4.88;;
48665;SDS011;34452;50.796;4.994;2023-06-19T11:32:33;7.72;;;5.03;;
48665;SDS011;34452;50.796;4.994;2023-06-19T11:35:06;8.32;;;5.50;;
48665;SDS011;34452;50.796;4.994;2023-06-19T11:37:33;8.63;;;4.80;;
48665;SDS011;34452;50.796;4.994;2023-06-19T11:40:00;12.40;;;5.30;;
48665;SDS011;34452;50.796;4.994;2023-06-19T11:42:26;8.55;;;4.93;;
48665;SDS011;34452;50.796;4.994;2023-06-19T11:44:54;7.97;;;5.20;;
48665;SDS011;34452;50.796;4.994;2023-06-19T11:47:21;9.07;;;4.90;;
48665;SDS011;34452;50.796;4.994;2023-06-19T11:49:48;7.63;;;4.45;;
48665;SDS011;34452;50.796;4.994;2023-06-19T11:52:15;7.00;;;4.20;;
48665;SDS011;34452;50.796;4.994;2023-06-19T11:54:41;6.40;;;4.50;;
48665;SDS011;34452;50.796;4.994;2023-06-19T11:59:36;7.10;;;4.50;;
48665;SDS011;34452;50.796;4.994;2023-06-19T12:02:03;11.95;;;4.95;;
48665;SDS011;34452;50.796;4.994;2023-06-19T12:06:55;14.73;;;3.90;;
48665;SDS011;34452;50.796;4.994;2023-06-19T12:11:47;7.90;;;5.05;;
48665;SDS011;34452;50.796;4.994;2023-06-19T12:16:38;7.60;;;4.03;;
48665;SDS011;34452;50.796;4.994;2023-06-19T12:21:29;6.72;;;4.03;;
48665;SDS011;34452;50.796;4.994;2023-06-19T12:26:20;27.25;;;5.55;;
48665;SDS011;34452;50.796;4.994;2023-06-19T12:28:49;21.48;;;4.95;;
48665;SDS011;34452;50.796;4.994;2023-06-19T12:31:15;7.32;;;3.75;;
48665;SDS011;34452;50.796;4.994;2023-06-19T12:33:42;7.30;;;3.95;;
48665;SDS011;34452;50.796;4.994;2023-06-19T12:36:10;7.35;;;3.88;;
48665;SDS011;34452;50.796;4.994;2023-06-19T12:38:38;8.15;;;3.97;;
48665;SDS011;34452;50.796;4.994;2023-06-19T12:41:04;10.40;;;4.40;;
48665;SDS011;34452;50.796;4.994;2023-06-19T12:45:57;10.13;;;4.47;;
48665;SDS011;34452;50.796;4.994;2023-06-19T12:48:24;6.32;;;4.13;;
48665;SDS011;34452;50.796;4.994;2023-06-19T12:50:50;6.95;;;4.22;;
48665;SDS011;34452;50.796;4.994;2023-06-19T12:55:42;6.38;;;3.45;;
48665;SDS011;34452;50.796;4.994;2023-06-19T13:00:34;7.95;;;3.30;;
48665;SDS011;34452;50.796;4.994;2023-06-19T13:05:25;11.70;;;4.05;;
48665;SDS011;34452;50.796;4.994;2023-06-19T13:10:16;6.43;;;3.40;;
48665;SDS011;34452;50.796;4.994;2023-06-19T13:12:42;5.13;;;3.47;;
48665;SDS011;34452;50.796;4.994;2023-06-19T13:15:08;5.82;;;3.60;;
48665;SDS011;34452;50.796;4.994;2023-06-19T13:17:34;13.32;;;3.90;;
48665;SDS011;34452;50.796;4.994;2023-06-19T13:22:25;6.53;;;3.45;;
48665;SDS011;34452;50.796;4.994;2023-06-19T13:24:51;4.75;;;3.65;;
48665;SDS011;34452;50.796;4.994;2023-06-19T13:29:43;6.65;;;3.10;;
48665;SDS011;34452;50.796;4.994;2023-06-19T13:32:09;6.90;;;3.45;;
48665;SDS011;34452;50.796;4.994;2023-06-19T13:37:00;7.72;;;4.25;;
48665;SDS011;34452;50.796;4.994;2023-06-19T13:39:26;6.72;;;3.50;;
48665;SDS011;34452;50.796;4.994;2023-06-19T13:41:51;10.05;;;3.60;;
48665;SDS011;34452;50.796;4.994;2023-06-19T13:44:17;6.22;;;3.35;;
48665;SDS011;34452;50.796;4.994;2023-06-19T13:46:44;8.00;;;3.20;;
48665;SDS011;34452;50.796;4.994;2023-06-19T13:49:10;8.02;;;3.30;;
48665;SDS011;34452;50.796;4.994;2023-06-19T13:54:02;12.80;;;3.38;;
48665;SDS011;34452;50.796;4.994;2023-06-19T13:56:29;8.55;;;3.55;;
48665;SDS011;34452;50.796;4.994;2023-06-19T13:58:55;18.02;;;3.30;;
48665;SDS011;34452;50.796;4.994;2023-06-19T14:01:22;5.00;;;2.80;;
48665;SDS011;34452;50.796;4.994;2023-06-19T14:03:50;10.35;;;3.50;;
48665;SDS011;34452;50.796;4.994;2023-06-19T14:06:16;6.97;;;2.67;;
48665;SDS011;34452;50.796;4.994;2023-06-19T14:08:42;4.00;;;2.72;;
48665;SDS011;34452;50.796;4.994;2023-06-19T14:11:08;5.75;;;2.80;;
48665;SDS011;34452;50.796;4.994;2023-06-19T14:13:34;8.25;;;3.33;;
48665;SDS011;34452;50.796;4.994;2023-06-19T14:16:01;4.85;;;2.88;;
48665;SDS011;34452;50.796;4.994;2023-06-19T14:18:27;3.65;;;3.05;;
48665;SDS011;34452;50.796;4.994;2023-06-19T14:20:52;3.70;;;2.90;;
48665;SDS011;34452;50.796;4.994;2023-06-19T14:23:18;4.35;;;3.35;;
48665;SDS011;34452;50.796;4.994;2023-06-19T14:25:44;9.43;;;3.63;;
48665;SDS011;34452;50.796;4.994;2023-06-19T14:28:09;6.03;;;2.63;;
48665;SDS011;34452;50.796;4.994;2023-06-19T14:30:35;4.82;;;3.05;;
48665;SDS011;34452;50.796;4.994;2023-06-19T14:33:01;6.85;;;3.13;;
48665;SDS011;34452;50.796;4.994;2023-06-19T14:35:27;9.73;;;2.90;;
48665;SDS011;34452;50.796;4.994;2023-06-19T14:37:52;6.32;;;2.72;;
48665;SDS011;34452;50.796;4.994;2023-06-19T14:40:18;6.00;;;2.90;;
48665;SDS011;34452;50.796;4.994;2023-06-19T14:42:44;5.25;;;2.72;;
48665;SDS011;34452;50.796;4.994;2023-06-19T14:45:09;4.82;;;2.97;;
48665;SDS011;34452;50.796;4.994;2023-06-19T14:47:35;3.35;;;2.60;;
48665;SDS011;34452;50.796;4.994;2023-06-19T14:50:01;3.83;;;2.63;;
48665;SDS011;34452;50.796;4.994;2023-06-19T14:52:27;7.85;;;3.65;;
48665;SDS011;34452;50.796;4.994;2023-06-19T14:54:53;10.95;;;3.28;;
48665;SDS011;34452;50.796;4.994;2023-06-19T14:57:19;6.43;;;3.25;;
48665;SDS011;34452;50.796;4.994;2023-06-19T14:59:45;6.38;;;2.85;;
48665;SDS011;34452;50.796;4.994;2023-06-19T15:02:10;7.43;;;2.88;;
48665;SDS011;34452;50.796;4.994;2023-06-19T15:04:36;7.40;;;2.83;;
48665;SDS011;34452;50.796;4.994;2023-06-19T15:07:03;6.95;;;3.33;;
48665;SDS011;34452;50.796;4.994;2023-06-19T15:09:29;15.95;;;2.90;;
48665;SDS011;34452;50.796;4.994;2023-06-19T15:11:55;3.72;;;3.03;;
48665;SDS011;34452;50.796;4.994;2023-06-19T15:14:20;5.70;;;2.90;;
48665;SDS011;34452;50.796;4.994;2023-06-19T15:16:46;5.57;;;3.58;;
48665;SDS011;34452;50.796;4.994;2023-06-19T15:19:12;9.80;;;3.78;;
48665;SDS011;34452;50.796;4.994;2023-06-19T15:21:37;7.43;;;3.05;;
48665;SDS011;34452;50.796;4.994;2023-06-19T15:24:03;5.32;;;3.38;;
48665;SDS011;34452;50.796;4.994;2023-06-19T15:26:29;4.68;;;3.40;;
48665;SDS011;34452;50.796;4.994;2023-06-19T15:28:55;6.47;;;3.35;;
48665;SDS011;34452;50.796;4.994;2023-06-19T15:31:21;6.85;;;2.95;;
48665;SDS011;34452;50.796;4.994;2023-06-19T15:33:48;7.55;;;3.15;;
48665;SDS011;34452;50.796;4.994;2023-06-19T15:36:15;5.85;;;3.10;;
48665;SDS011;34452;50.796;4.994;2023-06-19T15:38:41;4.20;;;3.00;;
48665;SDS011;34452;50.796;4.994;2023-06-19T15:41:08;9.18;;;3.40;;
48665;SDS011;34452;50.796;4.994;2023-06-19T15:43:33;9.63;;;3.85;;
48665;SDS011;34452;50.796;4.994;2023-06-19T15:45:59;9.20;;;3.30;;
48665;SDS011;34452;50.796;4.994;2023-06-19T15:48:25;7.10;;;3.60;;
48665;SDS011;34452;50.796;4.994;2023-06-19T15:50:51;5.22;;;3.50;;
48665;SDS011;34452;50.796;4.994;2023-06-19T15:53:16;5.72;;;3.47;;
48665;SDS011;34452;50.796;4.994;2023-06-19T15:55:42;4.63;;;3.17;;
48665;SDS011;34452;50.796;4.994;2023-06-19T15:58:08;5.00;;;3.08;;
48665;SDS011;34452;50.796;4.994;2023-06-19T16:00:34;4.57;;;3.10;;
48665;SDS011;34452;50.796;4.994;2023-06-19T16:02:59;5.97;;;3.50;;
48665;SDS011;34452;50.796;4.994;2023-06-19T16:05:25;4.70;;;3.53;;
48665;SDS011;34452;50.796;4.994;2023-06-19T16:07:51;4.82;;;3.30;;
48665;SDS011;34452;50.796;4.994;2023-06-19T16:10:17;11.05;;;3.92;;
48665;SDS011;34452;50.796;4.994;2023-06-19T16:12:44;7.93;;;3.53;;
48665;SDS011;34452;50.796;4.994;2023-06-19T16:15:10;11.10;;;3.85;;
48665;SDS011;34452;50.796;4.994;2023-06-19T16:17:39;8.18;;;3.40;;
48665;SDS011;34452;50.796;4.994;2023-06-19T16:20:05;6.80;;;3.58;;
48665;SDS011;34452;50.796;4.994;2023-06-19T16:22:32;8.38;;;3.40;;
48665;SDS011;34452;50.796;4.994;2023-06-19T16:24:59;4.85;;;3.33;;
48665;SDS011;34452;50.796;4.994;2023-06-19T16:27:25;5.60;;;3.38;;
48665;SDS011;34452;50.796;4.994;2023-06-19T16:29:50;5.28;;;3.10;;
48665;SDS011;34452;50.796;4.994;2023-06-19T16:32:16;4.50;;;3.60;;
48665;SDS011;34452;50.796;4.994;2023-06-19T16:37:08;5.13;;;2.97;;
48665;SDS011;34452;50.796;4.994;2023-06-19T16:39:33;7.80;;;3.47;;
48665;SDS011;34452;50.796;4.994;2023-06-19T16:44:25;6.25;;;3.15;;
48665;SDS011;34452;50.796;4.994;2023-06-19T16:49:16;4.85;;;3.30;;
48665;SDS011;34452;50.796;4.994;2023-06-19T16:54:08;7.38;;;3.78;;
48665;SDS011;34452;50.796;4.994;2023-06-19T16:58:59;9.85;;;3.92;;
48665;SDS011;34452;50.796;4.994;2023-06-19T17:01:26;17.95;;;3.45;;
48665;SDS011;34452;50.796;4.994;2023-06-19T17:06:18;4.45;;;2.80;;
48665;SDS011;34452;50.796;4.994;2023-06-19T17:11:09;10.00;;;3.70;;
48665;SDS011;34452;50.796;4.994;2023-06-19T17:16:00;5.93;;;2.97;;
48665;SDS011;34452;50.796;4.994;2023-06-19T17:20:51;7.95;;;3.38;;
48665;SDS011;34452;50.796;4.994;2023-06-19T17:25:43;7.88;;;3.50;;
48665;SDS011;34452;50.796;4.994;2023-06-19T17:28:10;8.00;;;3.17;;
48665;SDS011;34452;50.796;4.994;2023-06-19T17:33:03;7.72;;;3.47;;
48665;SDS011;34452;50.796;4.994;2023-06-19T17:35:31;7.50;;;3.80;;
48665;SDS011;34452;50.796;4.994;2023-06-19T17:40:22;4.72;;;3.28;;
48665;SDS011;34452;50.796;4.994;2023-06-19T17:45:14;7.28;;;3.47;;
48665;SDS011;34452;50.796;4.994;2023-06-19T17:50:05;5.35;;;3.60;;
48665;SDS011;34452;50.796;4.994;2023-06-19T17:52:32;13.77;;;4.30;;
48665;SDS011;34452;50.796;4.994;2023-06-19T17:54:57;10.02;;;3.53;;
48665;SDS011;34452;50.796;4.994;2023-06-19T17:59:49;9.85;;;4.00;;
48665;SDS011;34452;50.796;4.994;2023-06-19T18:02:15;4.75;;;3.50;;
48665;SDS011;34452;50.796;4.994;2023-06-19T18:04:41;5.35;;;3.55;;
48665;SDS011;34452;50.796;4.994;2023-06-19T18:07:07;12.00;;;4.63;;
48665;SDS011;34452;50.796;4.994;2023-06-19T18:09:34;11.10;;;3.60;;
48665;SDS011;34452;50.796;4.994;2023-06-19T18:12:00;6.22;;;3.92;;
48665;SDS011;34452;50.796;4.994;2023-06-19T18:16:52;9.68;;;3.88;;
48665;SDS011;34452;50.796;4.994;2023-06-19T18:19:18;9.57;;;4.28;;
48665;SDS011;34452;50.796;4.994;2023-06-19T18:21:44;8.40;;;3.78;;
48665;SDS011;34452;50.796;4.994;2023-06-19T18:24:10;8.52;;;3.85;;
48665;SDS011;34452;50.796;4.994;2023-06-19T18:26:35;9.32;;;3.88;;
48665;SDS011;34452;50.796;4.994;2023-06-19T18:29:01;6.47;;;3.80;;
48665;SDS011;34452;50.796;4.994;2023-06-19T18:31:27;11.63;;;3.75;;
48665;SDS011;34452;50.796;4.994;2023-06-19T18:33:53;7.47;;;3.83;;
48665;SDS011;34452;50.796;4.994;2023-06-19T18:36:19;5.88;;;4.10;;
48665;SDS011;34452;50.796;4.994;2023-06-19T18:38:45;9.38;;;4.00;;
48665;SDS011;34452;50.796;4.994;2023-06-19T18:41:11;5.43;;;3.70;;
48665;SDS011;34452;50.796;4.994;2023-06-19T18:43:36;6.00;;;3.63;;
48665;SDS011;34452;50.796;4.994;2023-06-19T18:46:02;7.18;;;3.63;;
48665;SDS011;34452;50.796;4.994;2023-06-19T18:48:28;10.15;;;4.50;;
48665;SDS011;34452;50.796;4.994;2023-06-19T18:50:54;17.85;;;4.22;;
48665;SDS011;34452;50.796;4.994;2023-06-19T18:53:20;13.82;;;4.20;;
48665;SDS011;34452;50.796;4.994;2023-06-19T18:55:45;6.75;;;4.07;;
48665;SDS011;34452;50.796;4.994;2023-06-19T18:58:11;9.20;;;4.00;;
48665;SDS011;34452;50.796;4.994;2023-06-19T19:03:03;6.53;;;4.07;;
48665;SDS011;34452;50.796;4.994;2023-06-19T19:07:56;6.90;;;3.58;;
48665;SDS011;34452;50.796;4.994;2023-06-19T19:10:22;6.18;;;3.85;;
48665;SDS011;34452;50.796;4.994;2023-06-19T19:12:48;5.65;;;3.83;;
48665;SDS011;34452;50.796;4.994;2023-06-19T19:15:13;6.47;;;3.70;;
48665;SDS011;34452;50.796;4.994;2023-06-19T19:17:39;4.65;;;3.40;;
48665;SDS011;34452;50.796;4.994;2023-06-19T19:20:05;11.73;;;3.85;;
48665;SDS011;34452;50.796;4.994;2023-06-19T19:22:33;8.30;;;4.07;;
48665;SDS011;34452;50.796;4.994;2023-06-19T19:25:00;8.68;;;4.38;;
48665;SDS011;34452;50.796;4.994;2023-06-19T19:27:26;7.05;;;4.80;;
48665;SDS011;34452;50.796;4.994;2023-06-19T19:29:51;14.88;;;4.57;;
48665;SDS011;34452;50.796;4.994;2023-06-19T19:32:17;6.82;;;4.43;;
48665;SDS011;34452;50.796;4.994;2023-06-19T19:34:46;23.40;;;4.60;;
48665;SDS011;34452;50.796;4.994;2023-06-19T19:37:12;9.40;;;4.60;;
48665;SDS011;34452;50.796;4.994;2023-06-19T19:39:38;6.13;;;3.95;;
48665;SDS011;34452;50.796;4.994;2023-06-19T19:42:04;54.92;;;6.43;;
48665;SDS011;34452;50.796;4.994;2023-06-19T19:44:30;48.05;;;5.78;;
48665;SDS011;34452;50.796;4.994;2023-06-19T19:46:56;15.68;;;4.85;;
48665;SDS011;34452;50.796;4.994;2023-06-19T19:49:22;18.38;;;5.00;;
48665;SDS011;34452;50.796;4.994;2023-06-19T19:51:48;10.90;;;4.88;;
48665;SDS011;34452;50.796;4.994;2023-06-19T19:54:14;8.35;;;4.72;;
48665;SDS011;34452;50.796;4.994;2023-06-19T19:56:39;11.07;;;3.70;;
48665;SDS011;34452;50.796;4.994;2023-06-19T19:59:05;9.90;;;4.47;;
48665;SDS011;34452;50.796;4.994;2023-06-19T20:01:31;11.10;;;3.78;;
48665;SDS011;34452;50.796;4.994;2023-06-19T20:03:57;10.30;;;4.13;;
48665;SDS011;34452;50.796;4.994;2023-06-19T20:08:50;9.23;;;4.00;;
48665;SDS011;34452;50.796;4.994;2023-06-19T20:11:16;7.22;;;4.47;;
48665;SDS011;34452;50.796;4.994;2023-06-19T20:13:41;10.38;;;4.38;;
48665;SDS011;34452;50.796;4.994;2023-06-19T20:16:07;13.30;;;4.47;;
48665;SDS011;34452;50.796;4.994;2023-06-19T20:18:35;4.95;;;3.75;;
48665;SDS011;34452;50.796;4.994;2023-06-19T20:21:01;6.95;;;4.07;;
48665;SDS011;34452;50.796;4.994;2023-06-19T20:23:27;11.02;;;4.05;;
48665;SDS011;34452;50.796;4.994;2023-06-19T20:25:52;17.88;;;4.70;;